AGROMETEOROLOŠKI PORTAL

vinorodna pokrajina

Temelj dobrega kmetovanja

Pregled podatkov za lokacijo Bovec - letališče ARSO, meteorološka postaja 101

Pregled senzorjev na lokaciji

ID Ime Zadnja
vrednost
Datum in čas
meritve
(lokalni čas)
Tip
senzorja
6026 Zračni tlak (hPa) 964 hPa 28.1.2023 06:30 ARSO
2254 Sončno sevanje (W/m2) 0 W/m2 28.1.2023 06:30 ARSO
2260 Padavine (mm) 0 mm 28.1.2023 06:30 ARSO
2248 Relativna zračna vlaga (2 m) (% RH) 75 % RH 28.1.2023 06:30 ARSO
2251 Temperatura tal (5 cm) (°C) 0,6 °C 28.1.2023 06:30 ARSO
2252 Temperatura tal (10 cm) (°C) 1 °C 28.1.2023 06:30 ARSO
2253 Temperatura tal (30 cm) (°C) 1,6 °C 28.1.2023 06:30 ARSO
2245 Temperatura (2 m) (°C) -2,5 °C 28.1.2023 06:30 ARSO
2256 Smer vetra (2 m) (°) 220 ° 28.1.2023 06:30 ARSO
2255 Hitrost vetra (2 m) (km/h) 4 km/h 28.1.2023 06:30 ARSO

Pregled podatkov zadnjih 24 ur

Zap.
št.
Datum in čas
(lokalni čas)
Bovec - letališče ARSO
Zračni
tlak
Sončno
sevanje
Padavine Relativna
zračna
vlaga
(2
m)
Temperatura
tal
(5
cm)
Temperatura
tal
(10
cm)
Temperatura
tal
(30
cm)
Temperatura
(2
m)
Smer
vetra
(2
m)
Hitrost
vetra
(2
m)
1 28.1.2023 06:30 964 0 0 75 0,6 1 1,6 -2,5 220 4
2 28.1.2023 06:00 963,7 0 0 73 0,7 1 1,6 -2,3 219 5
3 28.1.2023 05:30 963,6 0 0 73 0,7 1 1,6 -2,2 224 4
4 28.1.2023 05:00 963,5 0 0 73 0,7 1 1,6 -2,3 232 5
5 28.1.2023 04:30 963,2 0 0 68 0,7 1 1,6 -1,9 239 5
6 28.1.2023 04:00 963,1 0 0 51 0,7 1 1,6 0,6 330 8
7 28.1.2023 03:30 962,9 0 0 44 0,7 1 1,6 1,8 67 12
8 28.1.2023 03:00 962,9 0 0 41 0,7 1 1,6 2,4 50 15
9 28.1.2023 02:30 962,8 0 0 41 0,7 1 1,6 2,4 50 17
10 28.1.2023 02:00 962,6 0 0 40 0,7 1 1,6 2,5 49 20
11 28.1.2023 01:30 962,7 0 0 40 0,7 1 1,6 2,5 45 22
12 28.1.2023 01:00 962,7 0 0 39 0,7 1 1,7 2,6 35 19
13 28.1.2023 00:30 962,7 0 0 41 0,7 1 1,6 2,5 37 19
14 28.1.2023 00:00 962,7 0 0 41 0,7 1 1,6 2,4 55 19
15 27.1.2023 23:30 962,8 0 0 42 0,7 1 1,6 2,6 48 21
16 27.1.2023 23:00 962,6 0 0 43 0,7 1 1,7 2,5 40 22
17 27.1.2023 22:30 962,7 0 0 44 0,7 1 1,7 2,3 42 20
18 27.1.2023 22:00 962,7 0 0 45 0,7 1 1,7 2,3 49 18
19 27.1.2023 21:30 962,6 0 0 45 0,7 1 1,7 2,3 49 18
20 27.1.2023 21:00 962,4 0 0 46 0,7 1 1,7 2,3 48 17
21 27.1.2023 20:30 962,2 0 0 45 0,7 1 1,7 2,4 48 19
22 27.1.2023 20:00 961,9 0 0 45 0,7 1 1,7 2,4 59 19
23 27.1.2023 19:30 961,6 0 0 44 0,7 1 1,7 2,4 60 21
24 27.1.2023 19:00 961,4 0 0 43 0,7 1 1,7 2,6 50 19
25 27.1.2023 18:30 961,3 0 0 41 0,7 1 1,7 2,9 45 18
26 27.1.2023 18:00 960,9 0 0 40 0,7 1,1 1,7 2,8 47 14
27 27.1.2023 17:30 960,7 1 0 40 0,7 1 1,7 2,9 45 17
28 27.1.2023 17:00 960,3 13 0 40 0,7 1,1 1,7 2,9 53 17
29 27.1.2023 16:30 960,1 47 0 40 0,7 1,1 1,7 3,2 48 17
30 27.1.2023 16:00 960,1 72 0 38 0,7 1 1,7 3,4 38 17
31 27.1.2023 15:30 960 140 0 36 0,7 1 1,8 3,9 32 17
32 27.1.2023 15:00 959,8 322 0 34 0,6 1 1,8 4,6 30 16
33 27.1.2023 14:30 959,7 424 0 33 0,6 0,9 1,8 4,6 21 17
34 27.1.2023 14:00 959,8 324 0 34 0,6 0,9 1,8 4 28 16
35 27.1.2023 13:30 960 264 0 34 0,6 0,9 1,8 3,8 39 17
36 27.1.2023 13:00 960,3 199 0 33 0,6 0,9 1,8 3,4 33 19
37 27.1.2023 12:30 960,7 300 0 33 0,6 1 1,8 3,6 23 15
38 27.1.2023 12:00 961,1 180 0 35 0,6 1 1,8 2,8 36 11
39 27.1.2023 11:30 961,3 139 0 35 0,6 1 1,8 2,7 21 15
40 27.1.2023 11:00 961,5 222 0 36 0,6 1 1,8 3,1 52 14
41 27.1.2023 10:30 961,5 273 0 36 0,6 1 1,9 2,9 49 17
42 27.1.2023 10:00 961,3 167 0 40 0,6 1 1,9 1,9 66 14
43 27.1.2023 09:30 960,8 149 0 40 0,7 1 1,9 1,7 87 17
44 27.1.2023 09:00 960,7 102 0 41 0,7 1 1,9 1,4 62 15
45 27.1.2023 08:30 960,6 35 0 41 0,7 1 1,9 1,1 45 17
46 27.1.2023 08:00 960,2 5 0 44 0,7 1 1,9 0,6 62 21
47 27.1.2023 07:30 959,9 0 0 44 0,7 1,1 1,9 0,4 82 19